Time;durP1;ratioP1;P1;durP2;ratioP2;P2;SDS_P1;SDS_P2;PMS_P1;PMS_P2;Temp;Humidity;BMP_temperature;BMP_pressure;BME280_temperature;BME280_humidity;BME280_pressure;Samples;Min_cycle;Max_cycle;Signal;HPM_P1;HPM_P2
2023/06/05 00:00:23;;;;;;;8.32;4.07;;;;;;;;;;5063507;28;20025;-72
2023/06/05 00:02:49;;;;;;;6.32;4.22;;;;;;;;;;5053087;28;20091;-73
2023/06/05 00:05:18;;;;;;;6.47;3.72;;;;;;;;;;5053605;28;20049;-73
2023/06/05 00:07:44;;;;;;;5.00;3.78;;;;;;;;;;5060206;28;20036;-73
2023/06/05 00:10:11;;;;;;;8.43;5.10;;;;;;;;;;5058994;28;20032;-74
2023/06/05 00:12:37;;;;;;;7.28;4.00;;;;;;;;;;5063497;28;20115;-73
2023/06/05 00:15:04;;;;;;;5.47;3.53;;;;;;;;;;5065243;28;20078;-72
2023/06/05 00:17:30;;;;;;;4.80;4.20;;;;;;;;;;5065779;28;20081;-74
2023/06/05 00:20:00;;;;;;;7.85;4.07;;;;;;;;;;5062388;28;20103;-73
2023/06/05 00:22:31;;;;;;;6.75;3.95;;;;;;;;;;5059236;28;20036;-73
2023/06/05 00:24:57;;;;;;;5.90;4.53;;;;;;;;;;5064317;28;20047;-73
2023/06/05 00:27:23;;;;;;;6.45;4.10;;;;;;;;;;5054326;28;20033;-73
2023/06/05 00:29:50;;;;;;;5.53;4.20;;;;;;;;;;5061457;28;20455;-73
2023/06/05 00:32:16;;;;;;;7.85;4.47;;;;;;;;;;5068098;28;20024;-74
2023/06/05 00:34:42;;;;;;;7.40;4.43;;;;;;;;;;5063393;28;20043;-73
2023/06/05 00:37:09;;;;;;;7.25;5.15;;;;;;;;;;5058522;28;20040;-72
2023/06/05 00:39:35;;;;;;;8.07;4.18;;;;;;;;;;5060541;28;20028;-73
2023/06/05 00:42:01;;;;;;;9.25;4.30;;;;;;;;;;5069284;28;20550;-73
2023/06/05 00:44:27;;;;;;;6.45;4.43;;;;;;;;;;5066819;28;20032;-73
2023/06/05 00:46:53;;;;;;;9.02;4.55;;;;;;;;;;5063276;28;20020;-73
2023/06/05 00:49:20;;;;;;;7.75;4.72;;;;;;;;;;5066111;28;20074;-73
2023/06/05 00:51:46;;;;;;;7.20;4.20;;;;;;;;;;5065927;28;20021;-74
2023/06/05 00:54:17;;;;;;;7.50;4.35;;;;;;;;;;5062357;28;20117;-73
2023/06/05 00:56:43;;;;;;;6.82;4.38;;;;;;;;;;5057026;28;20024;-74
2023/06/05 00:59:09;;;;;;;6.07;4.80;;;;;;;;;;5060444;28;20053;-72
2023/06/05 01:01:36;;;;;;;6.63;4.25;;;;;;;;;;5061986;28;20033;-73
2023/06/05 01:04:02;;;;;;;7.45;4.40;;;;;;;;;;5068452;28;20114;-74
2023/06/05 01:06:30;;;;;;;8.02;4.65;;;;;;;;;;5066744;28;20020;-72
2023/06/05 01:08:57;;;;;;;7.25;4.80;;;;;;;;;;5056373;28;20024;-73
2023/06/05 01:11:33;;;;;;;9.55;5.07;;;;;;;;;;5066829;28;20021;-73
2023/06/05 01:14:07;;;;;;;7.10;5.30;;;;;;;;;;5067548;28;20340;-72
2023/06/05 01:16:34;;;;;;;5.78;4.60;;;;;;;;;;5057342;28;20027;-72
2023/06/05 01:19:03;;;;;;;7.03;4.53;;;;;;;;;;5066384;28;20036;-73
2023/06/05 01:21:32;;;;;;;6.93;4.68;;;;;;;;;;5067821;28;20048;-73
2023/06/05 01:23:59;;;;;;;8.90;4.88;;;;;;;;;;5062733;28;20031;-73
2023/06/05 01:26:37;;;;;;;6.75;4.57;;;;;;;;;;5064972;28;20060;-73
2023/06/05 01:29:05;;;;;;;8.02;4.80;;;;;;;;;;5057316;28;20033;-73
2023/06/05 01:31:36;;;;;;;7.13;4.93;;;;;;;;;;5068861;28;20048;-74
2023/06/05 01:34:05;;;;;;;9.05;5.40;;;;;;;;;;5065800;28;20103;-73
2023/06/05 01:36:32;;;;;;;9.85;4.95;;;;;;;;;;5062767;28;20486;-73
2023/06/05 01:38:59;;;;;;;8.70;5.15;;;;;;;;;;5072088;28;20111;-73
2023/06/05 01:41:26;;;;;;;6.40;4.47;;;;;;;;;;5060058;28;20393;-74
2023/06/05 01:43:53;;;;;;;8.77;5.97;;;;;;;;;;5057877;28;20043;-73
2023/06/05 01:46:20;;;;;;;7.78;4.85;;;;;;;;;;5063021;28;20269;-73
2023/06/05 01:48:46;;;;;;;10.85;4.72;;;;;;;;;;5068081;28;20040;-72
2023/06/05 01:51:13;;;;;;;7.20;4.75;;;;;;;;;;5060956;28;20033;-73
2023/06/05 01:53:39;;;;;;;9.65;4.75;;;;;;;;;;5060519;28;20037;-72
2023/06/05 01:56:08;;;;;;;7.55;4.60;;;;;;;;;;5055435;28;20063;-73
2023/06/05 01:58:35;;;;;;;8.25;4.85;;;;;;;;;;5066423;28;20371;-73
2023/06/05 02:01:02;;;;;;;10.38;5.53;;;;;;;;;;5067167;28;20052;-73
2023/06/05 02:03:28;;;;;;;8.30;4.18;;;;;;;;;;5055923;28;20031;-74
2023/06/05 02:05:54;;;;;;;6.65;4.32;;;;;;;;;;5059857;28;20037;-73
2023/06/05 02:08:22;;;;;;;8.93;5.28;;;;;;;;;;5060814;28;20024;-74
2023/06/05 02:10:52;;;;;;;6.10;4.18;;;;;;;;;;5065717;28;20029;-72
2023/06/05 02:13:25;;;;;;;9.52;5.07;;;;;;;;;;5065068;28;20029;-73
2023/06/05 02:15:56;;;;;;;11.77;4.97;;;;;;;;;;5072253;28;20033;-74
2023/06/05 02:18:25;;;;;;;9.48;6.00;;;;;;;;;;5059495;28;20021;-73
2023/06/05 02:20:55;;;;;;;7.40;4.00;;;;;;;;;;5066382;28;20059;-73
2023/06/05 02:23:21;;;;;;;10.43;4.93;;;;;;;;;;5063175;28;20111;-73
2023/06/05 02:25:47;;;;;;;7.30;4.93;;;;;;;;;;5065013;28;20043;-73
2023/06/05 02:28:13;;;;;;;7.43;4.72;;;;;;;;;;5060320;28;20092;-73
2023/06/05 02:30:44;;;;;;;9.32;5.07;;;;;;;;;;5062845;28;20047;-73
2023/06/05 02:33:10;;;;;;;8.73;5.13;;;;;;;;;;5067408;28;20047;-73
2023/06/05 02:35:39;;;;;;;6.53;4.40;;;;;;;;;;5065817;28;20055;-74
2023/06/05 02:38:06;;;;;;;7.07;5.32;;;;;;;;;;5066318;28;20071;-73
2023/06/05 02:40:32;;;;;;;7.80;4.80;;;;;;;;;;5058002;28;20020;-73
2023/06/05 02:42:58;;;;;;;6.45;4.93;;;;;;;;;;5065266;28;20031;-73
2023/06/05 02:45:24;;;;;;;9.80;6.05;;;;;;;;;;5061952;28;20051;-74
2023/06/05 02:47:50;;;;;;;10.80;5.72;;;;;;;;;;5064012;28;20016;-73
2023/06/05 02:50:17;;;;;;;10.57;5.78;;;;;;;;;;5062620;28;20033;-73
2023/06/05 02:52:43;;;;;;;7.00;4.63;;;;;;;;;;5075203;28;20039;-74
2023/06/05 02:55:09;;;;;;;7.15;5.30;;;;;;;;;;5055233;28;20391;-73
2023/06/05 02:57:41;;;;;;;8.55;5.13;;;;;;;;;;5061908;28;20079;-74
2023/06/05 03:00:14;;;;;;;7.10;5.05;;;;;;;;;;5060253;28;20475;-73
2023/06/05 03:02:40;;;;;;;9.18;5.22;;;;;;;;;;5065205;28;20024;-73
2023/06/05 03:05:07;;;;;;;7.65;5.30;;;;;;;;;;5062160;28;20024;-73
2023/06/05 03:07:33;;;;;;;7.88;5.38;;;;;;;;;;5063630;28;20035;-73
2023/06/05 03:10:01;;;;;;;5.90;4.60;;;;;;;;;;5065706;28;20017;-74
2023/06/05 03:12:27;;;;;;;8.52;5.18;;;;;;;;;;5065198;28;20102;-72
2023/06/05 03:14:53;;;;;;;11.10;4.65;;;;;;;;;;5066711;28;20285;-73
2023/06/05 03:17:20;;;;;;;8.05;5.05;;;;;;;;;;5077543;28;20546;-72
2023/06/05 03:19:46;;;;;;;7.75;5.13;;;;;;;;;;5054778;28;20044;-74
2023/06/05 03:22:12;;;;;;;7.80;5.07;;;;;;;;;;5062787;28;20104;-72
2023/06/05 03:24:38;;;;;;;7.70;5.15;;;;;;;;;;5059439;28;20491;-72
2023/06/05 03:27:05;;;;;;;6.47;5.07;;;;;;;;;;5061521;28;20036;-72
2023/06/05 03:29:31;;;;;;;6.65;4.97;;;;;;;;;;5052785;28;20728;-72
2023/06/05 03:31:57;;;;;;;6.60;4.70;;;;;;;;;;5064156;28;20054;-73
2023/06/05 03:34:25;;;;;;;6.65;4.97;;;;;;;;;;5063639;28;20040;-73
2023/06/05 03:36:51;;;;;;;10.57;4.95;;;;;;;;;;5057699;28;20477;-73
2023/06/05 03:39:18;;;;;;;9.07;5.22;;;;;;;;;;5062004;28;20026;-73
2023/06/05 03:41:44;;;;;;;7.57;4.82;;;;;;;;;;5071023;28;21143;-73
2023/06/05 03:44:10;;;;;;;7.80;5.82;;;;;;;;;;5063086;28;20399;-72
2023/06/05 03:46:37;;;;;;;11.95;5.75;;;;;;;;;;5060153;28;20052;-72
2023/06/05 03:49:08;;;;;;;9.75;4.18;;;;;;;;;;5069057;28;20032;-73
2023/06/05 03:51:35;;;;;;;7.60;3.95;;;;;;;;;;5070205;28;20079;-73
2023/06/05 03:54:03;;;;;;;8.02;4.40;;;;;;;;;;5070170;28;20023;-74
2023/06/05 03:56:33;;;;;;;6.75;4.35;;;;;;;;;;5054172;28;20391;-73
2023/06/05 03:59:08;;;;;;;6.88;4.13;;;;;;;;;;5053760;28;20105;-74
2023/06/05 04:01:38;;;;;;;6.05;4.10;;;;;;;;;;5069928;28;20021;-73
2023/06/05 04:04:08;;;;;;;6.47;4.20;;;;;;;;;;5061330;28;20029;-74
2023/06/05 04:06:36;;;;;;;7.15;4.20;;;;;;;;;;5065211;28;20025;-73
2023/06/05 04:09:02;;;;;;;5.60;4.15;;;;;;;;;;5056192;28;20039;-73
2023/06/05 04:11:30;;;;;;;4.85;3.65;;;;;;;;;;5063266;28;20055;-73
2023/06/05 04:13:56;;;;;;;6.40;3.72;;;;;;;;;;5055749;28;20025;-73
2023/06/05 04:16:22;;;;;;;6.75;3.70;;;;;;;;;;5055477;28;20082;-73
2023/06/05 04:18:48;;;;;;;5.18;3.85;;;;;;;;;;5065329;28;20577;-73
2023/06/05 04:21:14;;;;;;;8.07;4.10;;;;;;;;;;5053739;28;20068;-73
2023/06/05 04:23:40;;;;;;;7.22;4.30;;;;;;;;;;5062984;28;20050;-73
2023/06/05 04:26:07;;;;;;;6.35;3.95;;;;;;;;;;5057233;28;20079;-73
2023/06/05 04:28:34;;;;;;;7.22;4.15;;;;;;;;;;5053337;28;20040;-72
2023/06/05 04:31:01;;;;;;;4.90;4.00;;;;;;;;;;5049029;28;20110;-72
2023/06/05 04:33:27;;;;;;;7.18;4.35;;;;;;;;;;5062575;28;20039;-72
2023/06/05 04:35:54;;;;;;;6.72;3.80;;;;;;;;;;5059215;28;20059;-72
2023/06/05 04:38:21;;;;;;;5.32;3.85;;;;;;;;;;5053647;28;20032;-72
2023/06/05 04:40:48;;;;;;;7.97;4.13;;;;;;;;;;5061306;28;20478;-73
2023/06/05 04:43:14;;;;;;;7.80;4.40;;;;;;;;;;5060511;28;20545;-73
2023/06/05 04:45:43;;;;;;;7.45;4.13;;;;;;;;;;5055067;28;20021;-73
2023/06/05 04:48:09;;;;;;;7.35;4.45;;;;;;;;;;5062510;28;20048;-73
2023/06/05 04:50:35;;;;;;;6.60;4.32;;;;;;;;;;5066483;28;20029;-72
2023/06/05 04:53:02;;;;;;;5.75;4.10;;;;;;;;;;5056270;28;20029;-72
2023/06/05 04:55:28;;;;;;;6.93;4.63;;;;;;;;;;5057180;28;20082;-73
2023/06/05 04:57:54;;;;;;;5.30;4.05;;;;;;;;;;5052225;28;20033;-73
2023/06/05 05:00:20;;;;;;;6.38;4.50;;;;;;;;;;5051524;28;20039;-72
2023/06/05 05:02:46;;;;;;;7.50;4.32;;;;;;;;;;5054608;28;20043;-72
2023/06/05 05:05:13;;;;;;;8.25;3.80;;;;;;;;;;5050414;28;20021;-72
2023/06/05 05:07:40;;;;;;;6.68;3.85;;;;;;;;;;5063527;28;20025;-73
2023/06/05 05:10:08;;;;;;;6.43;3.75;;;;;;;;;;5063956;28;20025;-72
2023/06/05 05:12:34;;;;;;;7.35;4.47;;;;;;;;;;5052434;28;20060;-72
2023/06/05 05:15:00;;;;;;;8.02;3.95;;;;;;;;;;5057557;28;20381;-72
2023/06/05 05:17:26;;;;;;;6.57;4.32;;;;;;;;;;5069453;28;20083;-73
2023/06/05 05:19:52;;;;;;;6.75;4.20;;;;;;;;;;5058538;28;20033;-73
2023/06/05 05:22:18;;;;;;;7.43;5.47;;;;;;;;;;5058863;28;20029;-74
2023/06/05 05:24:45;;;;;;;8.35;4.10;;;;;;;;;;5072303;28;20043;-73
2023/06/05 05:27:11;;;;;;;5.95;3.88;;;;;;;;;;5069361;28;20032;-73
2023/06/05 05:29:37;;;;;;;6.65;3.90;;;;;;;;;;5071220;28;20060;-74
2023/06/05 05:32:03;;;;;;;6.50;3.70;;;;;;;;;;5063476;28;20028;-74
2023/06/05 05:34:29;;;;;;;4.53;3.50;;;;;;;;;;5080467;28;20046;-73
2023/06/05 05:36:56;;;;;;;6.47;3.55;;;;;;;;;;5065166;28;20038;-73
2023/06/05 05:39:22;;;;;;;6.13;3.47;;;;;;;;;;5060789;28;20028;-73
2023/06/05 05:41:48;;;;;;;7.25;4.00;;;;;;;;;;5058260;28;20077;-73
2023/06/05 05:44:15;;;;;;;5.43;3.50;;;;;;;;;;5058808;28;20029;-74
2023/06/05 05:46:41;;;;;;;5.35;3.55;;;;;;;;;;5070221;28;20105;-73
2023/06/05 05:49:08;;;;;;;6.05;3.72;;;;;;;;;;5059206;28;20025;-73
2023/06/05 05:51:34;;;;;;;6.63;3.65;;;;;;;;;;5061445;28;20599;-73
2023/06/05 05:54:00;;;;;;;7.13;3.53;;;;;;;;;;5066037;28;20390;-73
2023/06/05 05:56:26;;;;;;;7.55;4.72;;;;;;;;;;5067321;28;20049;-73
2023/06/05 05:58:53;;;;;;;6.65;3.60;;;;;;;;;;5060918;28;20096;-73
2023/06/05 06:01:19;;;;;;;4.88;3.53;;;;;;;;;;5063776;28;20055;-73
2023/06/05 06:03:45;;;;;;;4.40;3.50;;;;;;;;;;5059306;28;20083;-72
2023/06/05 06:06:12;;;;;;;5.07;3.70;;;;;;;;;;5071755;28;20024;-73
2023/06/05 06:08:38;;;;;;;7.63;3.63;;;;;;;;;;5070672;28;20063;-74
2023/06/05 06:11:06;;;;;;;5.80;3.55;;;;;;;;;;5062872;28;20075;-74
2023/06/05 06:13:35;;;;;;;4.65;3.70;;;;;;;;;;5070600;28;21343;-73
2023/06/05 06:16:02;;;;;;;6.82;3.92;;;;;;;;;;5069285;28;20028;-74
2023/06/05 06:18:28;;;;;;;6.32;3.47;;;;;;;;;;5063178;28;20056;-74
2023/06/05 06:20:55;;;;;;;5.55;3.70;;;;;;;;;;5069045;28;20029;-74
2023/06/05 06:23:21;;;;;;;7.47;3.92;;;;;;;;;;5067801;28;20028;-74
2023/06/05 06:25:47;;;;;;;5.70;3.22;;;;;;;;;;5064586;28;20612;-74
2023/06/05 06:28:13;;;;;;;4.53;3.67;;;;;;;;;;5066732;28;20046;-73
2023/06/05 06:30:39;;;;;;;4.80;3.58;;;;;;;;;;5066809;28;20135;-74
2023/06/05 06:33:05;;;;;;;8.38;3.85;;;;;;;;;;5059516;28;20442;-74
2023/06/05 06:35:31;;;;;;;4.78;3.72;;;;;;;;;;5063669;28;20027;-73
2023/06/05 06:37:58;;;;;;;7.68;4.05;;;;;;;;;;5066592;28;20021;-73
2023/06/05 06:40:25;;;;;;;6.57;3.60;;;;;;;;;;5060290;28;20055;-73
2023/06/05 06:42:52;;;;;;;5.93;4.25;;;;;;;;;;5064590;28;20020;-73
2023/06/05 06:45:18;;;;;;;7.72;4.45;;;;;;;;;;5060585;28;20030;-74
2023/06/05 06:47:44;;;;;;;7.10;4.20;;;;;;;;;;5060212;28;20290;-74
2023/06/05 06:50:10;;;;;;;4.38;3.53;;;;;;;;;;5066408;28;20109;-74
2023/06/05 06:52:36;;;;;;;5.28;4.03;;;;;;;;;;5063926;28;20063;-73
2023/06/05 06:55:03;;;;;;;6.72;4.30;;;;;;;;;;5062187;28;20434;-74
2023/06/05 06:57:29;;;;;;;8.35;4.10;;;;;;;;;;5059156;28;20466;-74
2023/06/05 06:59:55;;;;;;;8.15;4.35;;;;;;;;;;5062638;28;20104;-74
2023/06/05 07:02:23;;;;;;;8.82;4.03;;;;;;;;;;5054598;28;20379;-73
2023/06/05 07:04:50;;;;;;;4.93;3.90;;;;;;;;;;5057545;28;20021;-73
2023/06/05 07:07:16;;;;;;;5.43;3.60;;;;;;;;;;5056937;28;20103;-73
2023/06/05 07:09:43;;;;;;;6.68;3.88;;;;;;;;;;5055454;28;20040;-75
2023/06/05 07:12:10;;;;;;;4.43;3.78;;;;;;;;;;5052324;28;20078;-74
2023/06/05 07:14:37;;;;;;;8.18;4.22;;;;;;;;;;5057720;28;20021;-74
2023/06/05 07:17:04;;;;;;;5.05;4.45;;;;;;;;;;5067020;28;20032;-75
2023/06/05 07:19:31;;;;;;;6.13;4.40;;;;;;;;;;5067517;28;20033;-74
2023/06/05 07:21:57;;;;;;;6.13;3.92;;;;;;;;;;5061383;28;20490;-72
2023/06/05 07:24:28;;;;;;;7.45;4.95;;;;;;;;;;5052930;28;20032;-74
2023/06/05 07:26:56;;;;;;;9.57;4.63;;;;;;;;;;5058733;28;20473;-73
2023/06/05 07:29:25;;;;;;;6.95;3.90;;;;;;;;;;5074372;28;20468;-74
2023/06/05 07:31:52;;;;;;;6.15;4.35;;;;;;;;;;5062545;28;20143;-73
2023/06/05 07:34:18;;;;;;;6.47;4.00;;;;;;;;;;5066883;28;20036;-75
2023/06/05 07:36:45;;;;;;;8.60;4.68;;;;;;;;;;5065691;28;20053;-75
2023/06/05 07:39:11;;;;;;;8.10;4.40;;;;;;;;;;5058469;28;20386;-74
2023/06/05 07:41:39;;;;;;;12.18;4.32;;;;;;;;;;5057560;28;20031;-74
2023/06/05 07:44:06;;;;;;;7.78;4.60;;;;;;;;;;5054705;28;20586;-74
2023/06/05 07:46:32;;;;;;;8.50;5.50;;;;;;;;;;5074452;28;20048;-74
2023/06/05 07:48:58;;;;;;;9.93;5.05;;;;;;;;;;5059555;28;20051;-74
2023/06/05 07:51:25;;;;;;;5.30;3.90;;;;;;;;;;5055620;28;20471;-75
2023/06/05 07:53:51;;;;;;;7.07;4.40;;;;;;;;;;5054995;28;20032;-74
2023/06/05 07:56:17;;;;;;;6.97;4.20;;;;;;;;;;5055837;28;20051;-75
2023/06/05 07:58:43;;;;;;;7.10;4.55;;;;;;;;;;5064098;28;20028;-74
2023/06/05 08:01:11;;;;;;;7.03;4.38;;;;;;;;;;5049582;28;20238;-73
2023/06/05 08:03:38;;;;;;;7.78;4.50;;;;;;;;;;5054563;28;20021;-74
2023/06/05 08:06:04;;;;;;;6.40;4.85;;;;;;;;;;5052506;28;20025;-73
2023/06/05 08:08:31;;;;;;;5.53;4.45;;;;;;;;;;5051243;28;20490;-74
2023/06/05 08:10:57;;;;;;;5.88;4.45;;;;;;;;;;5074545;28;20093;-74
2023/06/05 08:13:23;;;;;;;7.45;4.97;;;;;;;;;;5067982;28;20472;-74
2023/06/05 08:15:49;;;;;;;4.90;4.40;;;;;;;;;;5054443;28;20382;-74
2023/06/05 08:18:16;;;;;;;5.13;3.47;;;;;;;;;;5052579;28;20079;-73
2023/06/05 08:20:42;;;;;;;5.68;3.85;;;;;;;;;;5053567;28;20021;-74
2023/06/05 08:23:08;;;;;;;6.88;3.50;;;;;;;;;;5051126;28;20032;-75
2023/06/05 08:25:35;;;;;;;6.50;3.53;;;;;;;;;;5062229;28;20616;-74
2023/06/05 08:28:01;;;;;;;6.30;3.92;;;;;;;;;;5056069;28;20498;-74
2023/06/05 08:30:27;;;;;;;4.22;3.55;;;;;;;;;;5058651;28;20052;-75
2023/06/05 08:32:53;;;;;;;5.03;3.38;;;;;;;;;;5053102;28;20609;-74
2023/06/05 08:35:19;;;;;;;4.35;3.53;;;;;;;;;;5053162;28;20033;-74
2023/06/05 08:37:46;;;;;;;4.63;3.10;;;;;;;;;;5047508;28;20075;-74
2023/06/05 08:40:12;;;;;;;5.80;3.60;;;;;;;;;;5060703;28;20024;-74
2023/06/05 08:42:38;;;;;;;4.75;3.38;;;;;;;;;;5053747;28;20082;-74
2023/06/05 08:45:08;;;;;;;8.38;3.45;;;;;;;;;;5054412;28;20033;-74
2023/06/05 08:47:38;;;;;;;4.32;3.20;;;;;;;;;;5050899;28;20114;-74
2023/06/05 08:50:06;;;;;;;4.78;3.05;;;;;;;;;;5050389;28;20024;-74
2023/06/05 08:52:36;;;;;;;4.72;2.80;;;;;;;;;;5057258;28;20067;-74
2023/06/05 08:55:04;;;;;;;6.55;3.63;;;;;;;;;;5064470;28;20033;-75
2023/06/05 08:57:31;;;;;;;4.25;3.22;;;;;;;;;;5055964;28;20017;-74
2023/06/05 08:59:58;;;;;;;6.85;3.20;;;;;;;;;;5052937;28;20091;-75
2023/06/05 09:02:24;;;;;;;4.10;3.28;;;;;;;;;;5064221;28;20461;-75
2023/06/05 09:04:51;;;;;;;4.20;3.03;;;;;;;;;;5062843;28;20252;-75
2023/06/05 09:07:17;;;;;;;4.18;3.50;;;;;;;;;;5053811;28;20025;-75
2023/06/05 09:09:44;;;;;;;7.03;3.83;;;;;;;;;;5054938;28;20033;-76
2023/06/05 09:12:10;;;;;;;4.30;3.22;;;;;;;;;;5050383;28;20033;-76
2023/06/05 09:14:36;;;;;;;5.68;3.40;;;;;;;;;;5065840;28;20036;-75
2023/06/05 09:17:03;;;;;;;6.97;3.92;;;;;;;;;;5063696;28;20075;-76
2023/06/05 09:19:36;;;;;;;6.28;3.50;;;;;;;;;;5054397;28;20040;-75
2023/06/05 09:22:02;;;;;;;6.43;3.58;;;;;;;;;;5051987;28;20043;-76
2023/06/05 09:24:30;;;;;;;4.53;3.58;;;;;;;;;;5061233;28;20024;-75
2023/06/05 09:26:57;;;;;;;5.63;3.92;;;;;;;;;;5063428;28;20044;-74
2023/06/05 09:29:28;;;;;;;8.02;3.75;;;;;;;;;;5061529;28;20086;-75
2023/06/05 09:31:58;;;;;;;4.60;3.05;;;;;;;;;;5055379;28;20029;-75
2023/06/05 09:34:25;;;;;;;6.57;3.30;;;;;;;;;;5058026;28;20505;-75
2023/06/05 09:36:51;;;;;;;3.90;3.00;;;;;;;;;;5061915;28;20051;-75
2023/06/05 09:39:19;;;;;;;3.13;2.80;;;;;;;;;;5055682;28;20300;-75
2023/06/05 09:41:46;;;;;;;5.03;3.10;;;;;;;;;;5049736;28;20110;-75
2023/06/05 09:44:12;;;;;;;3.97;3.20;;;;;;;;;;5063533;28;20497;-75
2023/06/05 09:46:54;;;;;;;6.30;3.60;;;;;;;;;;5060784;28;20025;-74
2023/06/05 09:49:33;;;;;;;4.38;3.55;;;;;;;;;;5056657;28;20102;-74
2023/06/05 09:52:00;;;;;;;7.00;3.83;;;;;;;;;;5068478;28;20024;-74
2023/06/05 09:54:28;;;;;;;6.15;3.33;;;;;;;;;;5062642;28;20029;-74
2023/06/05 09:57:05;;;;;;;6.38;3.90;;;;;;;;;;5051630;28;20055;-75
2023/06/05 09:59:32;;;;;;;5.20;3.53;;;;;;;;;;5067341;28;20043;-74
2023/06/05 10:02:07;;;;;;;3.75;2.75;;;;;;;;;;5067540;28;20020;-75
2023/06/05 10:04:46;;;;;;;3.33;3.03;;;;;;;;;;5053449;28;20029;-74
2023/06/05 10:07:13;;;;;;;4.03;3.05;;;;;;;;;;5049695;28;20025;-75
2023/06/05 10:09:40;;;;;;;6.10;3.42;;;;;;;;;;5066953;28;20029;-74
2023/06/05 10:12:08;;;;;;;5.38;3.28;;;;;;;;;;5059613;28;20494;-75
2023/06/05 10:14:36;;;;;;;3.85;2.63;;;;;;;;;;5057595;28;20474;-75
2023/06/05 10:17:02;;;;;;;3.72;3.15;;;;;;;;;;5064949;28;20048;-75
2023/06/05 10:19:29;;;;;;;5.63;3.35;;;;;;;;;;5061126;28;20498;-75
2023/06/05 10:21:55;;;;;;;3.13;2.40;;;;;;;;;;5065367;28;20043;-75
2023/06/05 10:24:26;;;;;;;3.92;2.60;;;;;;;;;;5055431;28;20049;-75
2023/06/05 10:27:11;;;;;;;3.38;2.80;;;;;;;;;;5065079;28;20025;-75
2023/06/05 10:29:56;;;;;;;3.08;2.72;;;;;;;;;;5051846;28;20114;-74
2023/06/05 10:32:22;;;;;;;3.35;2.72;;;;;;;;;;5055526;28;20040;-75
2023/06/05 10:35:06;;;;;;;4.40;2.60;;;;;;;;;;5055066;28;20144;-76
2023/06/05 10:37:41;;;;;;;4.15;2.50;;;;;;;;;;5054827;28;20060;-75
2023/06/05 10:40:09;;;;;;;5.22;2.72;;;;;;;;;;5059298;28;20024;-75
2023/06/05 10:42:36;;;;;;;5.05;2.55;;;;;;;;;;5061764;28;20098;-76
2023/06/05 10:45:03;;;;;;;4.15;2.92;;;;;;;;;;5054543;28;20021;-75
2023/06/05 10:47:32;;;;;;;3.40;2.50;;;;;;;;;;5055650;28;20032;-75
2023/06/05 10:50:19;;;;;;;4.57;2.70;;;;;;;;;;5067460;28;20029;-75
2023/06/05 10:52:49;;;;;;;4.07;3.05;;;;;;;;;;5061441;28;20081;-75
2023/06/05 10:55:16;;;;;;;2.80;2.33;;;;;;;;;;5060515;28;20051;-76
2023/06/05 10:58:00;;;;;;;4.05;2.80;;;;;;;;;;5051531;28;20074;-75
2023/06/05 11:00:27;;;;;;;3.13;2.53;;;;;;;;;;5053503;28;20047;-76
2023/06/05 11:02:53;;;;;;;3.47;2.63;;;;;;;;;;5053102;28;20259;-75
2023/06/05 11:05:20;;;;;;;3.75;2.92;;;;;;;;;;5058403;28;22535;-76
2023/06/05 11:07:47;;;;;;;2.75;2.45;;;;;;;;;;5062565;28;20025;-76
2023/06/05 11:10:20;;;;;;;4.05;3.05;;;;;;;;;;5049681;28;20395;-76
2023/06/05 11:12:46;;;;;;;2.95;2.40;;;;;;;;;;5057254;28;20020;-75
2023/06/05 11:15:18;;;;;;;3.00;2.35;;;;;;;;;;5046175;28;20036;-75
2023/06/05 11:17:47;;;;;;;2.50;2.30;;;;;;;;;;5051539;28;20032;-75
2023/06/05 11:20:29;;;;;;;3.13;2.33;;;;;;;;;;5051276;28;20037;-75
2023/06/05 11:22:55;;;;;;;3.33;2.50;;;;;;;;;;5059334;28;20417;-75
2023/06/05 11:25:21;;;;;;;3.17;2.63;;;;;;;;;;5048069;28;20013;-75
2023/06/05 11:27:48;;;;;;;5.40;2.92;;;;;;;;;;5048435;28;20096;-75
2023/06/05 11:30:15;;;;;;;3.58;2.50;;;;;;;;;;5058804;28;20053;-75
2023/06/05 11:32:41;;;;;;;6.30;3.05;;;;;;;;;;5054980;28;20021;-74
2023/06/05 11:35:08;;;;;;;3.80;2.83;;;;;;;;;;5062133;28;20025;-75
2023/06/05 11:37:35;;;;;;;4.50;3.08;;;;;;;;;;5056051;28;20032;-75
2023/06/05 11:40:11;;;;;;;3.67;2.97;;;;;;;;;;5059302;28;20485;-75
2023/06/05 11:42:38;;;;;;;4.00;2.72;;;;;;;;;;5066958;28;20413;-75
2023/06/05 11:45:14;;;;;;;5.93;3.30;;;;;;;;;;5055446;28;20139;-75
2023/06/05 11:47:40;;;;;;;5.18;3.20;;;;;;;;;;5051645;28;20075;-74
2023/06/05 11:50:13;;;;;;;3.92;2.70;;;;;;;;;;5055612;28;20131;-76
2023/06/05 11:52:40;;;;;;;3.33;2.75;;;;;;;;;;5053068;28;20120;-75
2023/06/05 11:55:15;;;;;;;3.65;2.58;;;;;;;;;;5051309;28;20024;-75
2023/06/05 11:57:42;;;;;;;3.55;2.88;;;;;;;;;;5054410;28;20035;-75
2023/06/05 12:00:09;;;;;;;5.22;3.22;;;;;;;;;;5055499;28;20075;-74
2023/06/05 12:02:35;;;;;;;3.85;2.97;;;;;;;;;;5051445;28;20035;-74
2023/06/05 12:05:01;;;;;;;3.05;2.55;;;;;;;;;;5054027;28;20025;-75
2023/06/05 12:07:31;;;;;;;3.83;2.88;;;;;;;;;;5049275;28;20320;-74
2023/06/05 12:09:58;;;;;;;4.43;2.90;;;;;;;;;;5053110;28;20035;-75
2023/06/05 12:12:25;;;;;;;4.63;3.33;;;;;;;;;;5059498;28;20029;-75
2023/06/05 12:14:55;;;;;;;5.68;3.35;;;;;;;;;;5049512;28;20501;-75
2023/06/05 12:17:22;;;;;;;4.07;2.95;;;;;;;;;;5052247;28;20378;-75
2023/06/05 12:19:55;;;;;;;4.78;3.15;;;;;;;;;;5054377;28;20025;-74
2023/06/05 12:22:22;;;;;;;5.30;2.83;;;;;;;;;;5052472;28;20530;-75
2023/06/05 12:24:48;;;;;;;3.95;3.10;;;;;;;;;;5056814;28;20028;-74
2023/06/05 12:27:15;;;;;;;3.58;2.83;;;;;;;;;;5058868;28;20024;-75
2023/06/05 12:29:54;;;;;;;3.70;2.92;;;;;;;;;;5059772;28;21608;-74
2023/06/05 12:32:22;;;;;;;4.13;3.05;;;;;;;;;;5061456;28;20486;-74
2023/06/05 12:34:52;;;;;;;3.45;2.83;;;;;;;;;;5060419;28;20022;-74
2023/06/05 12:37:29;;;;;;;3.13;2.80;;;;;;;;;;5057860;28;20062;-74
2023/06/05 12:39:56;;;;;;;7.18;3.85;;;;;;;;;;5058440;28;20968;-74
2023/06/05 12:42:22;;;;;;;5.45;3.33;;;;;;;;;;5061327;28;20423;-74
2023/06/05 12:44:48;;;;;;;4.13;3.10;;;;;;;;;;5055783;28;20091;-73
2023/06/05 12:47:14;;;;;;;3.88;3.00;;;;;;;;;;5061276;28;20071;-74
2023/06/05 12:49:40;;;;;;;4.20;3.33;;;;;;;;;;5059902;28;20109;-74
2023/06/05 12:52:08;;;;;;;5.38;3.47;;;;;;;;;;5058292;28;20510;-74
2023/06/05 12:54:35;;;;;;;5.93;3.78;;;;;;;;;;5060125;28;20127;-74
2023/06/05 12:57:01;;;;;;;5.70;3.35;;;;;;;;;;5059118;28;20041;-75
2023/06/05 12:59:27;;;;;;;6.25;3.20;;;;;;;;;;5055984;28;20028;-75
2023/06/05 13:01:53;;;;;;;6.95;3.50;;;;;;;;;;5060396;28;20479;-74
2023/06/05 13:04:19;;;;;;;4.20;3.58;;;;;;;;;;5061038;28;20028;-74
2023/06/05 13:06:46;;;;;;;5.03;4.32;;;;;;;;;;5059333;28;20075;-75
2023/06/05 13:09:13;;;;;;;4.57;3.50;;;;;;;;;;5054449;28;20143;-74
2023/06/05 13:11:39;;;;;;;7.18;3.90;;;;;;;;;;5057754;28;20234;-75
2023/06/05 13:14:05;;;;;;;4.95;3.28;;;;;;;;;;5055425;28;20045;-75
2023/06/05 13:16:31;;;;;;;5.25;3.22;;;;;;;;;;5058931;28;20055;-73
2023/06/05 13:18:58;;;;;;;4.40;3.45;;;;;;;;;;5055710;28;20037;-75
2023/06/05 13:21:25;;;;;;;4.38;3.30;;;;;;;;;;5058856;28;21064;-75
2023/06/05 13:23:51;;;;;;;5.35;3.53;;;;;;;;;;5058404;28;20028;-75
2023/06/05 13:26:17;;;;;;;4.50;3.60;;;;;;;;;;5054942;28;20025;-76
2023/06/05 13:28:44;;;;;;;6.13;3.60;;;;;;;;;;5055852;28;20032;-76
2023/06/05 13:31:13;;;;;;;4.25;3.60;;;;;;;;;;5059342;28;20053;-76
2023/06/05 13:33:39;;;;;;;4.40;3.38;;;;;;;;;;5056806;28;20035;-76
2023/06/05 13:36:06;;;;;;;4.65;3.70;;;;;;;;;;5056950;28;20047;-76
2023/06/05 13:38:32;;;;;;;4.57;3.42;;;;;;;;;;5059433;28;20498;-76
2023/06/05 13:40:58;;;;;;;5.65;3.58;;;;;;;;;;5056047;28;20497;-76
2023/06/05 13:43:24;;;;;;;3.67;3.25;;;;;;;;;;5052654;28;20044;-76
2023/06/05 13:45:50;;;;;;;4.80;3.10;;;;;;;;;;5054914;28;20438;-76
2023/06/05 13:48:16;;;;;;;5.13;3.38;;;;;;;;;;5055545;28;20047;-76
2023/06/05 13:50:43;;;;;;;4.15;3.30;;;;;;;;;;5059319;28;20031;-77
2023/06/05 13:53:10;;;;;;;3.97;3.58;;;;;;;;;;5069674;28;20819;-76
2023/06/05 13:55:36;;;;;;;4.97;3.53;;;;;;;;;;5053312;28;20035;-76
2023/06/05 13:58:02;;;;;;;3.53;3.17;;;;;;;;;;5055112;28;20025;-76
2023/06/05 14:00:31;;;;;;;4.75;3.70;;;;;;;;;;5058887;28;20060;-76
2023/06/05 14:02:58;;;;;;;6.28;3.83;;;;;;;;;;5055993;28;20548;-76
2023/06/05 14:05:25;;;;;;;4.57;3.70;;;;;;;;;;5053548;28;20025;-75
2023/06/05 14:07:52;;;;;;;5.03;3.78;;;;;;;;;;5058990;28;20049;-76
2023/06/05 14:10:20;;;;;;;4.18;3.50;;;;;;;;;;5052369;28;20029;-75
2023/06/05 14:12:46;;;;;;;4.75;3.90;;;;;;;;;;5052071;28;20086;-75
2023/06/05 14:15:12;;;;;;;4.28;3.50;;;;;;;;;;5054039;28;20040;-74
2023/06/05 14:17:38;;;;;;;4.38;3.30;;;;;;;;;;5054183;28;20090;-75
2023/06/05 14:20:04;;;;;;;4.97;3.30;;;;;;;;;;5058051;28;20485;-75
2023/06/05 14:22:30;;;;;;;4.38;3.28;;;;;;;;;;5056056;28;20047;-75
2023/06/05 14:24:56;;;;;;;5.22;3.55;;;;;;;;;;5057765;28;20155;-76
2023/06/05 14:27:22;;;;;;;4.78;3.30;;;;;;;;;;5055807;28;20033;-75
2023/06/05 14:29:48;;;;;;;5.40;3.03;;;;;;;;;;5053216;28;20061;-75
2023/06/05 14:32:15;;;;;;;3.97;2.88;;;;;;;;;;5057955;28;20040;-76
2023/06/05 14:34:41;;;;;;;4.22;3.30;;;;;;;;;;5054209;28;20490;-76
2023/06/05 14:37:07;;;;;;;5.80;3.33;;;;;;;;;;5057850;28;20050;-75
2023/06/05 14:39:33;;;;;;;4.32;3.13;;;;;;;;;;5053256;28;20890;-75
2023/06/05 14:42:00;;;;;;;3.33;2.70;;;;;;;;;;5052632;28;20021;-76
2023/06/05 14:44:26;;;;;;;5.65;3.10;;;;;;;;;;5054776;28;20489;-76